Time;durP1;ratioP1;P1;durP2;ratioP2;P2;SDS_P1;SDS_P2;PMS_P1;PMS_P2;Temp;Humidity;BMP_temperature;BMP_pressure;BME280_temperature;BME280_humidity;BME280_pressure;Samples;Min_cycle;Max_cycle;Signal;HPM_P1;HPM_P2
2022/11/25 00:02:17;;;;;;;19.63;7.32;;;;;;;6.59;100.00;162289.19;5029347;28;20046;-63
2022/11/25 00:04:42;;;;;;;17.77;5.72;;;;;;;6.64;100.00;162301.31;5030379;28;20485;-63
2022/11/25 00:07:08;;;;;;;34.20;8.45;;;;;;;6.66;100.00;162308.03;5028406;28;20523;-63
2022/11/25 00:09:33;;;;;;;14.20;6.10;;;;;;;6.70;100.00;162316.13;5030577;28;20447;-63
2022/11/25 00:11:58;;;;;;;21.15;6.38;;;;;;;6.76;100.00;162332.28;5028911;28;20045;-63
2022/11/25 00:14:24;;;;;;;16.67;8.18;;;;;;;6.76;100.00;162332.28;5029791;28;20017;-63
2022/11/25 00:16:49;;;;;;;13.43;6.10;;;;;;;6.81;100.00;162345.78;5028783;28;20053;-62
2022/11/25 00:19:15;;;;;;;15.10;6.70;;;;;;;6.84;100.00;162353.81;5030256;28;20473;-63
2022/11/25 00:21:41;;;;;;;29.70;7.55;;;;;;;6.84;100.00;162353.81;5028660;28;20501;-63
2022/11/25 00:24:07;;;;;;;26.65;7.88;;;;;;;6.88;100.00;162364.63;5030189;28;20069;-63
2022/11/25 00:26:35;;;;;;;16.20;6.15;;;;;;;6.95;100.00;162382.09;5028823;28;20061;-64
2022/11/25 00:29:03;;;;;;;20.27;6.75;;;;;;;6.97;100.00;162388.81;5029869;28;20075;-63
2022/11/25 00:31:31;;;;;;;21.25;6.25;;;;;;;7.01;100.00;162396.91;5029058;28;20041;-63
2022/11/25 00:33:57;;;;;;;16.90;6.83;;;;;;;6.99;100.00;162394.22;5030027;28;20508;-63
2022/11/25 00:36:28;;;;;;;21.65;5.93;;;;;;;7.05;100.00;162407.66;5028378;28;20542;-63
2022/11/25 00:38:55;;;;;;;15.27;5.68;;;;;;;6.95;100.00;162382.09;5033556;28;20064;-63
2022/11/25 00:46:48;;;;;;;27.42;6.50;;;;;;;7.12;100.00;162426.53;5032253;28;20048;-63
2022/11/25 00:49:14;;;;;;;20.17;7.82;;;;;;;7.09;100.00;162418.47;5033575;28;20025;-63
2022/11/25 00:51:39;;;;;;;22.60;6.93;;;;;;;7.12;100.00;162426.53;5032135;28;20041;-62
2022/11/25 00:54:05;;;;;;;14.80;4.65;;;;;;;7.17;100.00;162440.03;5033298;28;20033;-62
2022/11/25 00:56:30;;;;;;;16.83;5.68;;;;;;;7.20;100.00;162448.06;5032272;28;20034;-62
2022/11/25 00:58:56;;;;;;;16.77;6.88;;;;;;;7.19;100.00;162444.06;5033019;28;20029;-62
2022/11/25 01:01:22;;;;;;;17.55;5.40;;;;;;;7.19;100.00;162445.38;5032409;28;20103;-62
2022/11/25 01:03:48;;;;;;;29.40;7.50;;;;;;;7.21;100.00;162449.47;5033007;28;20029;-62
2022/11/25 01:06:14;;;;;;;15.23;6.45;;;;;;;7.22;100.00;162453.47;5012201;28;20049;-62
2022/11/25 01:08:39;;;;;;;16.80;5.10;;;;;;;7.17;100.00;162438.66;5013833;28;20022;-62
2022/11/25 01:11:11;;;;;;;15.40;6.13;;;;;;;7.15;100.00;162434.63;5012051;28;20034;-62
2022/11/25 01:13:36;;;;;;;22.88;7.82;;;;;;;7.18;100.00;162442.72;5024159;28;20488;-62
2022/11/25 01:16:04;;;;;;;26.17;9.27;;;;;;;7.14;100.00;162431.94;5031479;28;20036;-62
2022/11/25 01:18:29;;;;;;;17.17;7.55;;;;;;;6.97;100.00;162388.81;5033455;28;20025;-62
2022/11/25 01:21:03;;;;;;;18.05;5.60;;;;;;;7.09;100.00;162418.47;5031385;28;20035;-62
2022/11/25 01:23:28;;;;;;;25.70;10.15;;;;;;;7.06;100.00;162410.38;5033153;28;20029;-62
2022/11/25 01:25:53;;;;;;;20.02;5.80;;;;;;;7.01;100.00;162396.91;5031311;28;20108;-62
2022/11/25 01:28:19;;;;;;;11.48;5.53;;;;;;;6.98;100.00;162391.53;5032945;28;20041;-62
2022/11/25 01:30:44;;;;;;;23.42;7.68;;;;;;;6.99;100.00;162394.22;5033029;28;20030;-62
2022/11/25 01:33:09;;;;;;;20.58;7.97;;;;;;;7.01;100.00;162396.91;5031713;28;20437;-62
2022/11/25 01:35:36;;;;;;;21.83;7.65;;;;;;;7.01;100.00;162396.91;5032365;28;20064;-62
2022/11/25 01:38:02;;;;;;;24.38;8.23;;;;;;;7.04;100.00;162404.97;5031093;28;20037;-60
2022/11/25 01:40:27;;;;;;;17.85;6.22;;;;;;;7.04;100.00;162406.34;5033203;28;20029;-60
2022/11/25 01:42:52;;;;;;;24.63;8.95;;;;;;;7.11;100.00;162423.88;5030732;28;20044;-60
2022/11/25 01:45:21;;;;;;;17.63;7.43;;;;;;;7.12;100.00;162426.53;5032709;28;20195;-59
2022/11/25 01:47:46;;;;;;;27.25;8.88;;;;;;;7.12;100.00;162426.53;5030552;28;20176;-59
2022/11/25 01:50:13;;;;;;;14.93;5.55;;;;;;;7.12;100.00;162426.53;5032246;28;20025;-59
2022/11/25 01:52:44;;;;;;;19.20;5.95;;;;;;;7.11;100.00;162423.88;5030757;28;20045;-59
2022/11/25 01:55:14;;;;;;;39.15;10.30;;;;;;;7.10;100.00;162421.19;5032490;28;20033;-60
2022/11/25 01:57:45;;;;;;;26.77;6.35;;;;;;;7.03;100.00;162402.31;5030687;28;20527;-60
2022/11/25 02:00:11;;;;;;;21.00;7.97;;;;;;;7.09;100.00;162418.47;5032704;28;20191;-63
2022/11/25 02:02:36;;;;;;;16.38;4.47;;;;;;;7.06;100.00;162410.38;5030746;28;20556;-63
2022/11/25 02:05:06;;;;;;;19.80;7.70;;;;;;;7.04;100.00;162404.97;5031679;28;20025;-63
2022/11/25 02:07:35;;;;;;;28.17;7.88;;;;;;;7.01;100.00;162396.91;5030913;28;20041;-63
2022/11/25 02:10:02;;;;;;;;;;;;;;;7.01;100.00;162396.91;5033008;28;20029;-63
2022/11/25 02:12:28;;;;;;;23.50;7.85;;;;;;;7.02;100.00;162399.63;5030332;28;20364;-63
2022/11/25 02:14:55;;;;;;;13.63;5.43;;;;;;;7.03;100.00;162402.31;5031908;28;20040;-62
2022/11/25 02:17:21;;;;;;;20.67;7.35;;;;;;;7.01;100.00;162396.91;5030723;28;20049;-62
2022/11/25 02:20:01;;;;;;;29.38;6.55;;;;;;;7.07;100.00;162414.44;5031721;28;20029;-62
2022/11/25 02:22:45;;;;;;;24.70;8.88;;;;;;;7.13;100.00;162429.22;5015866;28;20464;-62
2022/11/25 02:25:20;;;;;;;21.40;9.13;;;;;;;7.12;100.00;162426.53;5031657;28;20029;-62
2022/11/25 02:27:51;;;;;;;18.38;8.77;;;;;;;7.16;100.00;162437.31;5010244;28;20650;-62
2022/11/25 02:30:16;;;;;;;23.20;5.18;;;;;;;7.19;100.00;162445.38;5012433;28;20033;-65
2022/11/25 02:32:44;;;;;;;15.80;6.07;;;;;;;7.14;100.00;162433.31;5022086;28;20041;-65
2022/11/25 02:35:27;;;;;;;19.63;5.80;;;;;;;7.25;100.00;162461.59;5031375;28;20033;-65
2022/11/25 02:37:58;;;;;;;23.05;7.75;;;;;;;7.28;100.00;162469.63;5030243;28;20117;-65
2022/11/25 02:40:26;;;;;;;16.15;6.30;;;;;;;7.31;100.00;162476.38;5031236;28;20025;-65
2022/11/25 02:42:52;;;;;;;25.65;7.45;;;;;;;7.26;100.00;162462.91;5024375;28;20041;-65
2022/11/25 02:45:22;;;;;;;12.35;5.93;;;;;;;7.34;100.00;162483.09;5031460;28;20079;-65
2022/11/25 02:47:47;;;;;;;17.65;6.47;;;;;;;7.34;100.00;162483.09;5029964;28;20037;-65
2022/11/25 02:50:12;;;;;;;20.73;6.90;;;;;;;7.33;100.00;162480.44;5031128;28;20049;-64
2022/11/25 02:52:38;;;;;;;21.35;5.68;;;;;;;7.30;100.00;162475.03;5030460;28;20034;-64
2022/11/25 02:55:04;;;;;;;20.83;8.98;;;;;;;7.25;100.00;162461.59;5030806;28;20037;-64
2022/11/25 02:57:29;;;;;;;12.88;5.70;;;;;;;7.25;100.00;162460.22;5029395;28;20064;-64
2022/11/25 02:59:54;;;;;;;21.20;6.53;;;;;;;7.22;100.00;162453.47;5030614;28;20075;-64
2022/11/25 03:02:20;;;;;;;18.60;8.32;;;;;;;7.27;100.00;162465.63;5030198;28;20046;-64
2022/11/25 03:04:45;;;;;;;21.35;7.13;;;;;;;7.27;100.00;162466.94;5030769;28;20036;-64
2022/11/25 03:07:10;;;;;;;12.55;6.40;;;;;;;7.25;100.00;162461.59;5029638;28;20033;-64
2022/11/25 03:09:36;;;;;;;17.27;6.03;;;;;;;7.24;100.00;162458.88;5030984;28;20025;-64
2022/11/25 03:14:58;;;;;;;15.23;5.53;;;;;;;7.21;100.00;162450.78;4988299;28;20121;-63
2022/11/25 03:17:24;;;;;;;27.63;6.80;;;;;;;7.23;100.00;162454.81;5009993;28;20046;-64
2022/11/25 03:19:49;;;;;;;29.73;9.10;;;;;;;7.24;100.00;162458.88;5013013;28;20021;-63
2022/11/25 03:22:14;;;;;;;20.55;6.75;;;;;;;7.25;100.00;162461.59;5029213;28;20508;-63
2022/11/25 03:24:40;;;;;;;16.73;6.00;;;;;;;7.26;100.00;162464.22;5030585;28;20365;-63
2022/11/25 03:27:05;;;;;;;14.57;6.85;;;;;;;7.25;100.00;162461.59;5028627;28;20053;-63
2022/11/25 03:29:30;;;;;;;21.60;7.85;;;;;;;7.28;100.00;162469.63;5030834;28;20034;-61
2022/11/25 03:31:56;;;;;;;17.40;5.75;;;;;;;7.27;100.00;162466.94;5029139;28;20044;-61
2022/11/25 03:34:21;;;;;;;18.15;7.32;;;;;;;7.26;100.00;162464.22;5030786;28;20025;-61
2022/11/25 03:36:46;;;;;;;25.17;7.03;;;;;;;7.27;100.00;162466.94;5028324;28;20042;-61
2022/11/25 03:39:12;;;;;;;23.13;7.55;;;;;;;7.33;100.00;162480.44;5030177;28;20033;-61
2022/11/25 03:41:37;;;;;;;18.02;6.32;;;;;;;7.33;100.00;162480.44;5029237;28;20033;-61
2022/11/25 03:44:02;;;;;;;17.25;6.68;;;;;;;7.34;100.00;162483.09;5030039;28;20090;-62
2022/11/25 03:46:28;;;;;;;26.30;9.38;;;;;;;7.39;100.00;162496.59;5028757;28;20095;-62
2022/11/25 03:48:53;;;;;;;24.73;7.38;;;;;;;7.42;100.00;162504.66;5029840;28;20028;-62
2022/11/25 03:51:18;;;;;;;19.55;7.47;;;;;;;7.47;100.00;162518.16;5028646;28;20096;-62
2022/11/25 03:53:44;;;;;;;13.90;5.68;;;;;;;7.49;100.00;162523.50;5030330;28;20380;-62
2022/11/25 03:56:09;;;;;;;16.38;5.28;;;;;;;7.49;100.00;162523.50;5028731;28;20052;-62
2022/11/25 03:58:34;;;;;;;15.90;6.43;;;;;;;7.49;100.00;162523.50;5030549;28;20021;-62
2022/11/25 04:01:01;;;;;;;22.85;8.68;;;;;;;7.50;100.00;162524.88;5028646;28;20029;-62
2022/11/25 04:03:27;;;;;;;26.58;10.55;;;;;;;7.53;100.00;162534.31;5030039;28;20029;-63
2022/11/25 04:05:52;;;;;;;17.45;7.25;;;;;;;7.53;100.00;162534.31;5029102;28;20104;-60
2022/11/25 04:08:18;;;;;;;17.48;6.75;;;;;;;7.55;100.00;162539.72;5030015;28;20043;-61
2022/11/25 04:10:43;;;;;;;28.60;9.02;;;;;;;7.59;100.00;162550.47;5030334;28;20621;-62
2022/11/25 04:13:08;;;;;;;17.45;7.32;;;;;;;7.59;100.00;162549.13;5033218;28;20044;-62
2022/11/25 04:15:34;;;;;;;22.67;9.50;;;;;;;7.59;100.00;162550.47;5034643;28;20060;-62
2022/11/25 04:17:59;;;;;;;24.27;7.63;;;;;;;7.59;100.00;162550.47;5031844;28;20053;-62
2022/11/25 04:20:24;;;;;;;23.48;7.95;;;;;;;7.66;100.00;162568.00;5034542;28;20017;-61
2022/11/25 04:22:50;;;;;;;20.98;7.82;;;;;;;7.68;100.00;162572.03;5032677;28;20044;-62
2022/11/25 04:25:15;;;;;;;18.98;10.38;;;;;;;7.70;100.00;162577.44;5033775;28;20411;-62
2022/11/25 04:27:40;;;;;;;11.85;6.03;;;;;;;7.70;100.00;162577.44;5032518;28;20070;-61
2022/11/25 04:30:07;;;;;;;25.67;8.48;;;;;;;7.74;100.00;162588.19;5033926;28;20026;-62
2022/11/25 04:32:32;;;;;;;19.50;8.43;;;;;;;7.70;100.00;162577.44;5032178;28;20483;-61
2022/11/25 04:34:57;;;;;;;25.02;7.97;;;;;;;7.75;100.00;162592.22;5033158;28;20098;-61
2022/11/25 04:37:23;;;;;;;26.67;8.77;;;;;;;7.76;100.00;162593.59;5032191;28;20045;-61
2022/11/25 04:39:48;;;;;;;24.65;8.82;;;;;;;7.75;100.00;162590.88;5033540;28;20124;-62
2022/11/25 04:42:31;;;;;;;29.50;9.45;;;;;;;7.75;100.00;162590.88;5032483;28;20488;-61
2022/11/25 04:44:57;;;;;;;19.33;8.40;;;;;;;7.75;100.00;162057.59;5033377;28;20049;-61
2022/11/25 04:47:23;;;;;;;26.20;9.55;;;;;;;7.71;100.00;161510.91;5031907;28;20042;-62
2022/11/25 04:49:48;;;;;;;33.33;9.05;;;;;;;7.72;100.00;160049.06;5033430;28;20087;-61
2022/11/25 04:52:13;;;;;;;24.27;8.60;;;;;;;7.73;100.00;157741.91;5032264;28;20041;-62
2022/11/25 04:54:39;;;;;;;34.42;9.95;;;;;;;7.72;100.00;155227.72;5033777;28;20545;-62
2022/11/25 04:57:04;;;;;;;20.02;9.07;;;;;;;7.70;100.00;152741.31;5031467;28;20037;-62
2022/11/25 04:59:39;;;;;;;22.58;7.53;;;;;;;7.64;100.00;150971.59;5033708;28;20025;-63
2022/11/25 05:02:21;;;;;;;17.45;9.30;;;;;;;7.71;100.00;148883.09;5031647;28;20037;-62
2022/11/25 05:04:48;;;;;;;31.80;9.57;;;;;;;7.71;100.00;148181.75;5032589;28;20036;-62
2022/11/25 05:07:16;;;;;;;21.08;9.27;;;;;;;7.70;100.00;147478.13;5031776;28;20052;-62
2022/11/25 05:09:42;;;;;;;20.17;8.73;;;;;;;7.70;100.00;146427.75;5033117;28;20116;-62
2022/11/25 05:12:11;;;;;;;26.80;9.77;;;;;;;7.68;100.00;146072.44;5031964;28;20193;-62
2022/11/25 05:14:36;;;;;;;24.83;9.85;;;;;;;7.69;100.00;144672.09;5038772;28;20029;-63
2022/11/25 05:17:02;;;;;;;23.63;9.50;;;;;;;7.68;100.00;143618.88;5031474;28;20042;-63
2022/11/25 05:19:28;;;;;;;17.98;8.52;;;;;;;7.68;100.00;143269.81;5032796;28;20112;-63
2022/11/25 05:21:53;;;;;;;23.38;9.43;;;;;;;7.68;100.00;143969.13;5037382;28;20094;-62
2022/11/25 05:24:19;;;;;;;16.27;8.07;;;;;;;7.68;100.00;143269.81;5052051;28;20476;-63
2022/11/25 05:26:44;;;;;;;24.77;8.20;;;;;;;7.68;100.00;142919.63;5038400;28;20393;-62
2022/11/25 05:29:10;;;;;;;22.50;9.38;;;;;;;7.65;100.00;142562.44;5032845;28;20083;-62
2022/11/25 05:31:35;;;;;;;20.13;10.27;;;;;;;7.70;100.00;141872.75;5031763;28;20052;-62
2022/11/25 05:34:01;;;;;;;27.20;9.27;;;;;;;7.68;100.00;141869.22;5031116;28;20432;-62
2022/11/25 05:36:27;;;;;;;23.52;8.32;;;;;;;7.68;100.00;141518.00;5029962;28;20439;-61
2022/11/25 05:38:55;;;;;;;24.98;8.85;;;;;;;7.69;100.00;141170.28;5032749;28;20022;-62
2022/11/25 05:41:21;;;;;;;37.80;10.73;;;;;;;7.69;100.00;140821.41;5025940;28;20452;-62
2022/11/25 05:43:46;;;;;;;31.65;11.13;;;;;;;7.57;100.00;141844.66;5032275;28;20168;-61
2022/11/25 05:46:12;;;;;;;26.45;8.93;;;;;;;7.65;100.00;141160.94;5031543;28;20095;-61
2022/11/25 05:48:37;;;;;;;31.30;9.68;;;;;;;7.65;100.00;140812.13;5032662;28;20035;-60
2022/11/25 05:51:03;;;;;;;21.50;9.48;;;;;;;7.63;100.00;141158.63;5030851;28;20036;-60
2022/11/25 05:53:29;;;;;;;25.48;10.45;;;;;;;7.61;100.00;140452.88;5033071;28;20021;-61
2022/11/25 05:56:00;;;;;;;28.67;8.15;;;;;;;7.58;100.00;139747.31;5030642;28;20381;-60
2022/11/25 05:58:27;;;;;;;27.98;9.73;;;;;;;7.56;100.00;139392.88;5032738;28;20089;-61
2022/11/25 06:00:53;;;;;;;40.72;10.48;;;;;;;7.58;100.00;138696.75;5030532;28;20021;-60
2022/11/25 06:03:19;;;;;;;25.27;9.48;;;;;;;7.58;100.00;137648.72;5032399;28;20029;-61
2022/11/25 06:05:44;;;;;;;22.95;10.65;;;;;;;7.58;100.00;136949.44;5032120;28;20083;-61
2022/11/25 06:08:10;;;;;;;19.67;8.85;;;;;;;7.58;100.00;136249.16;5030854;28;20037;-61
2022/11/25 06:10:39;;;;;;;24.80;9.57;;;;;;;7.61;100.00;136257.00;5031979;28;20028;-61
2022/11/25 06:13:05;;;;;;;27.52;11.43;;;;;;;7.61;100.00;136257.00;5030594;28;20037;-61
2022/11/25 06:15:30;;;;;;;15.70;7.65;;;;;;;7.64;100.00;136612.22;5032298;28;20494;-60
2022/11/25 06:17:55;;;;;;;26.40;8.75;;;;;;;7.63;100.00;137310.38;5030222;28;20500;-61
2022/11/25 06:20:21;;;;;;;20.10;9.55;;;;;;;7.65;100.00;137663.50;5032179;28;20550;-61
2022/11/25 06:22:46;;;;;;;13.98;7.05;;;;;;;7.62;100.00;138357.28;5030230;28;20111;-61
2022/11/25 06:25:12;;;;;;;26.27;9.27;;;;;;;7.66;100.00;138015.50;5013876;28;20029;-60
2022/11/25 06:27:37;;;;;;;28.83;11.30;;;;;;;7.65;100.00;139061.41;5030735;28;20088;-60
2022/11/25 06:30:03;;;;;;;17.00;7.68;;;;;;;7.63;100.00;139758.84;5031723;28;20036;-60
2022/11/25 06:32:28;;;;;;;18.63;8.32;;;;;;;7.61;100.00;140454.06;5029966;28;20152;-60
2022/11/25 06:34:54;;;;;;;22.42;8.93;;;;;;;7.62;100.00;140806.34;5030906;28;20025;-60
2022/11/25 06:37:19;;;;;;;16.67;8.43;;;;;;;7.62;100.00;141156.31;5030295;28;20041;-61
2022/11/25 06:39:44;;;;;;;21.95;8.70;;;;;;;7.62;100.00;140806.34;5031145;28;20372;-60
2022/11/25 06:42:10;;;;;;;24.65;7.85;;;;;;;7.62;100.00;140456.38;5030295;28;20037;-61
2022/11/25 06:44:35;;;;;;;39.58;9.80;;;;;;;7.65;100.00;139761.16;5031437;28;20049;-60
2022/11/25 06:47:01;;;;;;;23.02;7.22;;;;;;;7.63;100.00;139059.13;5029564;28;20435;-60
2022/11/25 06:49:28;;;;;;;17.45;8.65;;;;;;;7.66;100.00;138014.34;5026953;28;20022;-60
2022/11/25 06:51:53;;;;;;;16.65;9.10;;;;;;;7.65;100.00;137312.63;5027831;28;20045;-60
2022/11/25 06:54:18;;;;;;;27.10;10.30;;;;;;;7.65;100.00;136263.72;5029055;28;20029;-60
2022/11/25 06:56:44;;;;;;;21.73;8.48;;;;;;;7.65;100.00;134865.56;5029528;28;20374;-60
2022/11/25 06:59:09;;;;;;;23.77;10.05;;;;;;;7.65;100.00;133817.28;5031161;28;20041;-60
2022/11/25 07:01:34;;;;;;;18.75;8.20;;;;;;;7.65;100.00;132769.25;5029439;28;20029;-60
2022/11/25 07:04:02;;;;;;;17.52;8.32;;;;;;;7.63;100.00;132417.78;5030913;28;20025;-60
2022/11/25 07:06:28;;;;;;;21.63;8.18;;;;;;;7.62;100.00;131717.16;5029928;28;20068;-60
2022/11/25 07:08:55;;;;;;;26.73;9.95;;;;;;;7.64;100.00;130672.91;5030582;28;20063;-60
2022/11/25 07:11:29;;;;;;;20.23;8.00;;;;;;;7.63;100.00;129624.59;5029672;28;20045;-60
2022/11/25 07:13:57;;;;;;;27.00;8.25;;;;;;;7.62;100.00;128923.44;5031037;28;20508;-60
2022/11/25 07:16:23;;;;;;;21.13;9.03;;;;;;;7.59;100.00;128220.31;5029312;28;20515;-59
2022/11/25 07:18:49;;;;;;;23.65;9.25;;;;;;;7.58;100.00;126822.94;5031062;28;20496;-60
2022/11/25 07:21:22;;;;;;;28.77;12.10;;;;;;;7.59;100.00;125777.84;5026129;28;20167;-59
2022/11/25 07:23:49;;;;;;;19.52;10.75;;;;;;;7.60;100.00;124735.00;5030570;28;20029;-60
2022/11/25 07:26:20;;;;;;;23.40;10.80;;;;;;;7.61;100.00;124039.94;5029353;28;20041;-60
2022/11/25 07:28:46;;;;;;;22.23;9.95;;;;;;;7.55;100.00;123678.19;5030499;28;20472;-60
2022/11/25 07:31:15;;;;;;;25.17;9.98;;;;;;;7.55;100.00;124027.72;5029146;28;20047;-61
2022/11/25 07:33:41;;;;;;;22.95;10.48;;;;;;;7.56;100.00;123681.22;5030978;28;20021;-60
2022/11/25 07:36:08;;;;;;;26.73;11.63;;;;;;;7.57;100.00;123682.25;5029158;28;20029;-60
2022/11/25 07:38:34;;;;;;;21.40;9.63;;;;;;;7.57;100.00;124030.75;5030397;28;20014;-60
2022/11/25 07:41:12;;;;;;;32.38;10.52;;;;;;;7.55;100.00;125073.38;5028884;28;20047;-60
2022/11/25 07:43:37;;;;;;;18.73;8.75;;;;;;;7.53;100.00;126115.13;5028996;28;20405;-60
2022/11/25 07:46:11;;;;;;;20.10;10.23;;;;;;;7.52;100.00;126810.44;5028439;28;20083;-60
2022/11/25 07:48:36;;;;;;;32.17;11.48;;;;;;;7.52;100.00;127856.75;5030516;28;20480;-60
2022/11/25 07:51:02;;;;;;;18.50;10.38;;;;;;;7.54;100.00;128209.78;5023600;28;20026;-60
2022/11/25 07:53:27;;;;;;;21.00;8.60;;;;;;;7.55;100.00;128559.69;5026797;28;20147;-60
2022/11/25 07:55:52;;;;;;;20.63;9.38;;;;;;;7.59;100.00;128918.16;5028495;28;20029;-59
2022/11/25 07:58:18;;;;;;;13.32;8.75;;;;;;;7.64;100.00;129625.69;5030642;28;20029;-60
2022/11/25 08:00:43;;;;;;;14.32;8.10;;;;;;;7.64;100.00;131720.41;5030032;28;20029;-60
2022/11/25 08:03:08;;;;;;;14.27;6.38;;;;;;;7.61;100.00;135557.91;5028846;28;20045;-60
2022/11/25 08:05:34;;;;;;;14.27;6.95;;;;;;;7.54;100.00;139738.13;5012631;28;20032;-60
2022/11/25 08:07:59;;;;;;;13.40;5.93;;;;;;;7.54;100.00;143588.06;5028400;28;20427;-60
2022/11/25 08:10:24;;;;;;;19.45;9.00;;;;;;;7.49;100.00;147077.75;5030207;28;20029;-60
2022/11/25 08:12:50;;;;;;;11.80;6.70;;;;;;;7.47;100.00;148827.75;5028898;28;20037;-60
2022/11/25 08:15:15;;;;;;;19.67;6.65;;;;;;;7.41;100.00;151266.19;5030078;28;20021;-60
2022/11/25 08:17:40;;;;;;;20.65;7.78;;;;;;;7.45;100.00;150574.72;5028998;28;20049;-60
2022/11/25 08:20:06;;;;;;;14.25;7.50;;;;;;;7.52;100.00;148136.50;5030174;28;20017;-60
2022/11/25 08:22:32;;;;;;;11.23;6.68;;;;;;;7.54;100.00;147091.13;5028888;28;20064;-60
2022/11/25 08:24:57;;;;;;;12.13;6.95;;;;;;;7.56;100.00;147095.94;5030158;28;20017;-60
2022/11/25 08:27:22;;;;;;;19.90;9.13;;;;;;;7.56;100.00;147445.22;5029138;28;20041;-60
2022/11/25 08:29:48;;;;;;;17.58;7.55;;;;;;;7.57;100.00;148149.94;5029740;28;20026;-60
2022/11/25 08:32:13;;;;;;;14.27;6.38;;;;;;;7.65;100.00;146764.91;5028949;28;20037;-60
2022/11/25 08:34:39;;;;;;;19.92;6.75;;;;;;;7.65;100.00;146764.91;5030300;28;20018;-60
2022/11/25 08:37:04;;;;;;;15.48;7.72;;;;;;;7.66;100.00;148169.53;5028136;28;20033;-60
2022/11/25 08:39:29;;;;;;;25.67;6.53;;;;;;;7.67;100.00;149925.44;5030257;28;20049;-60
2022/11/25 08:41:55;;;;;;;25.35;10.10;;;;;;;7.67;100.00;151328.72;5028773;28;20384;-60
2022/11/25 08:44:20;;;;;;;13.20;7.93;;;;;;;7.71;100.00;151338.69;5029728;28;20060;-60
2022/11/25 08:46:46;;;;;;;13.52;6.15;;;;;;;7.81;100.00;148906.50;5024713;28;20500;-60
2022/11/25 08:49:11;;;;;;;16.30;7.97;;;;;;;7.93;100.00;146482.16;5029894;28;20025;-60
2022/11/25 08:51:37;;;;;;;23.05;8.13;;;;;;;8.29;100.00;142357.81;5021782;28;20045;-60
2022/11/25 08:54:03;;;;;;;17.10;7.95;;;;;;;8.60;100.00;143829.97;5029492;28;20502;-60
2022/11/25 08:56:29;;;;;;;15.70;8.18;;;;;;;8.89;100.00;151978.28;5028244;28;20044;-61
2022/11/25 08:58:55;;;;;;;12.23;5.57;;;;;;;8.98;100.00;162911.72;5031044;28;20392;-60
2022/11/25 09:01:22;;;;;;;13.73;6.22;;;;;;;9.01;100.00;162919.81;5032358;28;20112;-60
2022/11/25 09:03:49;;;;;;;27.00;7.55;;;;;;;8.98;100.00;162911.72;5033535;28;20504;-60
2022/11/25 09:06:15;;;;;;;17.60;5.68;;;;;;;9.02;100.00;162922.53;5031663;28;20492;-60
2022/11/25 09:08:43;;;;;;;11.98;5.50;;;;;;;9.11;100.00;162946.81;5033362;28;20040;-60
2022/11/25 09:11:08;;;;;;;12.68;5.85;;;;;;;9.14;100.00;162954.88;5032069;28;20540;-60
2022/11/25 09:13:34;;;;;;;12.00;5.10;;;;;;;9.51;100.00;163051.97;5033448;28;20025;-60
2022/11/25 09:16:00;;;;;;;12.10;5.80;;;;;;;9.91;100.00;163154.50;5031790;28;20507;-60
2022/11/25 09:18:28;;;;;;;9.82;5.35;;;;;;;10.12;100.00;163211.19;5033369;28;20451;-60
2022/11/25 09:20:55;;;;;;;12.77;5.10;;;;;;;10.08;100.00;163199.03;5031541;28;20013;-60
2022/11/25 09:23:22;;;;;;;10.38;5.22;;;;;;;9.63;100.00;163083.00;5033032;28;20025;-60
2022/11/25 09:25:52;;;;;;;23.45;5.40;;;;;;;9.69;100.00;163097.84;5033147;28;20060;-60
2022/11/25 09:28:17;;;;;;;10.10;5.07;;;;;;;9.47;100.00;163041.22;5031556;28;20382;-60
2022/11/25 09:30:42;;;;;;;11.73;5.68;;;;;;;9.33;100.00;163003.44;5032664;28;20036;-60
2022/11/25 09:33:08;;;;;;;5.75;3.92;;;;;;;9.57;100.00;163065.50;5031355;28;20034;-61
2022/11/25 09:35:33;;;;;;;10.20;4.40;;;;;;;9.72;100.00;163105.91;5032990;28;20036;-61
2022/11/25 09:37:58;;;;;;;10.55;4.65;;;;;;;9.77;100.00;163119.44;5030887;28;20044;-61
2022/11/25 09:40:54;;;;;;;14.05;5.97;;;;;;;9.61;100.00;163076.28;5033020;28;20029;-61
2022/11/25 09:46:40;;;;;;;9.10;3.97;;;;;;;10.39;100.00;163281.38;4989279;28;20585;-61
2022/11/25 09:49:08;;;;;;;13.77;4.47;;;;;;;10.19;100.00;163227.38;5012319;28;20485;-61
2022/11/25 09:52:01;;;;;;;9.40;4.03;;;;;;;10.50;100.00;163309.72;5011442;28;20053;-61
2022/11/25 09:54:41;;;;;;;6.88;5.60;;;;;;;10.76;100.00;163377.25;5012338;28;20029;-61
2022/11/25 09:57:28;;;;;;;13.20;5.32;;;;;;;11.08;100.00;163462.28;4993627;28;20400;-61
2022/11/25 10:00:00;;;;;;;9.38;4.57;;;;;;;10.99;100.00;163437.97;5012232;28;20464;-61
2022/11/25 10:02:29;;;;;;;12.93;5.95;;;;;;;11.04;100.00;163451.50;5011391;28;20042;-61
2022/11/25 10:05:04;;;;;;;9.13;3.85;;;;;;;11.00;100.00;163440.69;5028053;28;20033;-61
2022/11/25 10:07:35;;;;;;;15.23;6.05;;;;;;;11.26;100.00;163508.22;5030103;28;20040;-61
2022/11/25 10:10:05;;;;;;;10.85;4.75;;;;;;;10.58;100.00;163330.00;5031555;28;20040;-61
2022/11/25 10:12:39;;;;;;;12.90;4.75;;;;;;;11.02;100.00;163444.78;5030674;28;20049;-61
2022/11/25 10:15:11;;;;;;;6.55;4.10;;;;;;;11.06;100.00;163456.88;5031726;28;20028;-61
2022/11/25 10:17:48;;;;;;;8.15;4.20;;;;;;;11.23;100.00;163501.47;5030730;28;20095;-61
2022/11/25 10:20:25;;;;;;;11.90;4.95;;;;;;;11.26;100.00;163508.22;5031854;28;20071;-61
2022/11/25 10:22:54;;;;;;;13.40;3.58;;;;;;;11.18;100.00;163486.59;5030371;28;20041;-61
2022/11/25 10:25:27;;;;;;;6.32;3.65;;;;;;;11.47;100.00;163562.22;5031670;28;20484;-61
2022/11/25 10:28:09;;;;;;;16.73;5.03;;;;;;;11.54;100.00;163582.47;5030077;28;20041;-61
2022/11/25 10:30:57;;;;;;;9.18;4.65;;;;;;;11.16;100.00;163481.19;5031832;28;20036;-61
2022/11/25 10:33:43;;;;;;;9.65;5.85;;;;;;;11.07;100.00;163459.59;5030266;28;20037;-61
2022/11/25 10:36:33;;;;;;;8.52;4.63;;;;;;;10.96;100.00;163429.91;5015105;28;20488;-60
2022/11/25 10:39:04;;;;;;;9.32;6.15;;;;;;;10.99;100.00;163436.66;5031781;28;20018;-61
2022/11/25 10:41:35;;;;;;;13.82;5.90;;;;;;;11.10;100.00;163467.72;5030342;28;20099;-60
2022/11/25 10:44:02;;;;;;;10.32;3.97;;;;;;;11.01;100.00;163443.38;5015762;28;20049;-60
2022/11/25 10:46:35;;;;;;;10.38;4.75;;;;;;;10.92;100.00;163419.06;5029344;28;20053;-60
2022/11/25 10:49:06;;;;;;;16.58;4.85;;;;;;;11.06;100.00;163455.56;5030973;28;20032;-61
2022/11/25 10:51:39;;;;;;;8.88;4.75;;;;;;;11.14;100.00;163475.78;5029557;28;20037;-61
2022/11/25 10:54:22;;;;;;;12.77;4.28;;;;;;;11.13;100.00;163473.13;5030759;28;20032;-61
2022/11/25 10:57:00;;;;;;;9.43;4.57;;;;;;;11.27;100.00;163512.25;5029594;28;20098;-61
2022/11/25 10:59:28;;;;;;;12.57;6.25;;;;;;;11.10;100.00;163467.72;5028763;28;20388;-61
2022/11/25 11:02:14;;;;;;;11.52;3.35;;;;;;;11.03;100.00;163448.81;5028990;28;20029;-61
2022/11/25 11:04:58;;;;;;;11.30;4.25;;;;;;;10.86;100.00;163402.88;5031336;28;20671;-61
2022/11/25 11:07:26;;;;;;;29.90;6.43;;;;;;;10.83;100.00;163394.81;5029170;28;20148;-61
2022/11/25 11:09:52;;;;;;;13.57;4.20;;;;;;;10.78;100.00;163382.66;5031151;28;20032;-61
2022/11/25 11:12:23;;;;;;;14.45;6.32;;;;;;;10.54;100.00;163319.19;5028897;28;20532;-61
2022/11/25 11:14:52;;;;;;;8.82;4.53;;;;;;;10.62;100.00;163340.78;5030391;28;20017;-61
2022/11/25 11:17:32;;;;;;;19.27;4.93;;;;;;;10.68;100.00;163357.03;5028089;28;20041;-61
2022/11/25 11:20:13;;;;;;;8.07;4.45;;;;;;;10.57;100.00;163327.28;5010868;28;20026;-61
2022/11/25 11:22:55;;;;;;;10.25;5.93;;;;;;;10.67;100.00;163352.94;5009540;28;20061;-61
2022/11/25 11:25:22;;;;;;;12.10;5.95;;;;;;;10.75;100.00;163374.53;5024561;28;20136;-61
2022/11/25 11:27:48;;;;;;;11.48;5.20;;;;;;;10.82;100.00;163392.09;5028813;28;20492;-61
2022/11/25 11:30:16;;;;;;;15.30;5.22;;;;;;;11.02;100.00;163444.78;5032999;28;20117;-61
2022/11/25 11:32:46;;;;;;;19.55;4.97;;;;;;;11.09;100.00;163463.66;5034212;28;20049;-60